Terminal Aerodrome Forecast
Issued by NWS Springfield, MO

Home | Current Version | Previous Version | Text Only | Print | Product List | Glossary On
Versions: 1 2 3 4 5 6 7 8 9 10 11 12 13 14 15 16 17 18
000
FTUS43 KSGF 011700
TAFSGF
TAF
KSGF 011725Z 0118/0218 28017G27KT P6SM -DZSN OVC010
      TEMPO 0118/0120 3SM -RA OVC008
     FM012000 30021G30KT 6SM -RASN OVC015
     FM020100 32013G18KT P6SM OVC020
      TEMPO 0204/0208 4SM -SN
     FM020900 33012KT P6SM OVC020
     FM021400 33006KT P6SM OVC040=

USA.gov is the U.S. government's official web portal to all federal, state and local government web resources and services.